BUD weather

Budapest Liszt Ferenc International Airport
Budapest, Pest, Hungary

Public forecast

Using degrees Celsius for public forecast. Weather courtesy of forecast.io.

Current aviation weather report (METAR) for Budapest Liszt Ferenc International Airport

Retrieved 2019/11/19 04:30 UTC (0 seconds ago):

LHBP 190430Z 06004KT CAVOK 04/03 Q1022 NOSIG

Aviation forecast (TAF) for Budapest Liszt Ferenc International Airport

Retrieved 2019-11-19 00:27 UTC (4 hours ago):

TAF TAF LHBP 182315Z 1900/1924 VRB03KT CAVOK TEMPO 1902/1908 2000 BCFG BR BECMG 1908/1910 07008KT BECMG 1917/1920 3000 BR BKN004